sensor_id;sensor_type;location;lat;lon;timestamp;P1;durP1;ratioP1;P2;durP2;ratioP2
18544;SDS011;9402;51.460;7.276;2023-04-15T00:01:27;25.33;;;9.82;;
18544;SDS011;9402;51.460;7.276;2023-04-15T00:03:32;24.88;;;10.00;;
18544;SDS011;9402;51.460;7.276;2023-04-15T00:05:35;19.83;;;9.07;;
18544;SDS011;9402;51.460;7.276;2023-04-15T00:07:38;18.23;;;9.00;;
18544;SDS011;9402;51.460;7.276;2023-04-15T00:09:40;12.65;;;6.10;;
18544;SDS011;9402;51.460;7.276;2023-04-15T00:11:43;16.70;;;6.78;;
18544;SDS011;9402;51.460;7.276;2023-04-15T00:13:46;18.92;;;7.82;;
18544;SDS011;9402;51.460;7.276;2023-04-15T00:15:48;20.95;;;6.90;;
18544;SDS011;9402;51.460;7.276;2023-04-15T00:17:52;16.23;;;6.68;;
18544;SDS011;9402;51.460;7.276;2023-04-15T00:19:54;19.42;;;7.03;;
18544;SDS011;9402;51.460;7.276;2023-04-15T00:21:58;18.63;;;7.15;;
18544;SDS011;9402;51.460;7.276;2023-04-15T00:24:01;16.80;;;6.63;;
18544;SDS011;9402;51.460;7.276;2023-04-15T00:26:03;14.85;;;7.50;;
18544;SDS011;9402;51.460;7.276;2023-04-15T00:28:06;19.15;;;8.20;;
18544;SDS011;9402;51.460;7.276;2023-04-15T00:30:09;15.48;;;7.18;;
18544;SDS011;9402;51.460;7.276;2023-04-15T00:32:11;15.80;;;7.25;;
18544;SDS011;9402;51.460;7.276;2023-04-15T00:34:15;20.40;;;9.45;;
18544;SDS011;9402;51.460;7.276;2023-04-15T00:36:18;22.73;;;8.95;;
18544;SDS011;9402;51.460;7.276;2023-04-15T00:38:20;19.58;;;8.68;;
18544;SDS011;9402;51.460;7.276;2023-04-15T00:40:23;21.23;;;9.30;;
18544;SDS011;9402;51.460;7.276;2023-04-15T00:42:25;22.15;;;10.65;;
18544;SDS011;9402;51.460;7.276;2023-04-15T00:44:28;25.42;;;10.43;;
18544;SDS011;9402;51.460;7.276;2023-04-15T00:46:31;18.52;;;8.75;;
18544;SDS011;9402;51.460;7.276;2023-04-15T00:48:36;24.13;;;11.48;;
18544;SDS011;9402;51.460;7.276;2023-04-15T00:50:40;25.52;;;11.45;;
18544;SDS011;9402;51.460;7.276;2023-04-15T00:52:42;24.45;;;12.90;;
18544;SDS011;9402;51.460;7.276;2023-04-15T00:54:44;29.15;;;12.38;;
18544;SDS011;9402;51.460;7.276;2023-04-15T00:56:47;31.33;;;13.02;;
18544;SDS011;9402;51.460;7.276;2023-04-15T00:58:49;23.65;;;11.50;;
18544;SDS011;9402;51.460;7.276;2023-04-15T01:00:52;23.67;;;11.45;;
18544;SDS011;9402;51.460;7.276;2023-04-15T01:02:57;26.13;;;12.07;;
18544;SDS011;9402;51.460;7.276;2023-04-15T01:04:59;27.00;;;11.15;;
18544;SDS011;9402;51.460;7.276;2023-04-15T01:07:03;25.23;;;12.75;;
18544;SDS011;9402;51.460;7.276;2023-04-15T01:09:06;27.50;;;13.38;;
18544;SDS011;9402;51.460;7.276;2023-04-15T01:11:08;31.55;;;12.68;;
18544;SDS011;9402;51.460;7.276;2023-04-15T01:13:11;24.33;;;13.15;;
18544;SDS011;9402;51.460;7.276;2023-04-15T01:15:14;27.65;;;12.15;;
18544;SDS011;9402;51.460;7.276;2023-04-15T01:17:16;25.45;;;12.55;;
18544;SDS011;9402;51.460;7.276;2023-04-15T01:19:19;29.08;;;11.55;;
18544;SDS011;9402;51.460;7.276;2023-04-15T01:21:21;24.25;;;12.65;;
18544;SDS011;9402;51.460;7.276;2023-04-15T01:23:25;25.08;;;13.52;;
18544;SDS011;9402;51.460;7.276;2023-04-15T01:25:31;28.38;;;11.85;;
18544;SDS011;9402;51.460;7.276;2023-04-15T01:27:34;28.10;;;12.82;;
18544;SDS011;9402;51.460;7.276;2023-04-15T01:29:37;28.13;;;11.93;;
18544;SDS011;9402;51.460;7.276;2023-04-15T01:31:44;29.38;;;14.27;;
18544;SDS011;9402;51.460;7.276;2023-04-15T01:33:50;27.88;;;13.88;;
18544;SDS011;9402;51.460;7.276;2023-04-15T01:35:53;26.55;;;13.63;;
18544;SDS011;9402;51.460;7.276;2023-04-15T01:37:55;31.17;;;12.30;;
18544;SDS011;9402;51.460;7.276;2023-04-15T01:40:03;21.65;;;11.95;;
18544;SDS011;9402;51.460;7.276;2023-04-15T01:42:08;26.27;;;13.52;;
18544;SDS011;9402;51.460;7.276;2023-04-15T01:44:10;30.73;;;12.95;;
18544;SDS011;9402;51.460;7.276;2023-04-15T01:46:13;23.45;;;12.68;;
18544;SDS011;9402;51.460;7.276;2023-04-15T01:48:15;25.35;;;14.35;;
18544;SDS011;9402;51.460;7.276;2023-04-15T01:50:18;19.65;;;10.07;;
18544;SDS011;9402;51.460;7.276;2023-04-15T01:52:20;19.95;;;10.18;;
18544;SDS011;9402;51.460;7.276;2023-04-15T01:54:23;21.67;;;10.00;;
18544;SDS011;9402;51.460;7.276;2023-04-15T01:56:25;25.92;;;10.45;;
18544;SDS011;9402;51.460;7.276;2023-04-15T01:58:29;20.27;;;10.30;;
18544;SDS011;9402;51.460;7.276;2023-04-15T02:00:31;21.48;;;10.10;;
18544;SDS011;9402;51.460;7.276;2023-04-15T02:02:34;25.48;;;12.82;;
18544;SDS011;9402;51.460;7.276;2023-04-15T02:04:36;21.52;;;11.82;;
18544;SDS011;9402;51.460;7.276;2023-04-15T02:06:39;22.65;;;12.65;;
18544;SDS011;9402;51.460;7.276;2023-04-15T02:08:41;24.95;;;12.05;;
18544;SDS011;9402;51.460;7.276;2023-04-15T02:10:43;22.15;;;9.57;;
18544;SDS011;9402;51.460;7.276;2023-04-15T02:12:46;17.33;;;8.57;;
18544;SDS011;9402;51.460;7.276;2023-04-15T02:14:50;16.27;;;8.02;;
18544;SDS011;9402;51.460;7.276;2023-04-15T02:16:52;17.50;;;8.88;;
18544;SDS011;9402;51.460;7.276;2023-04-15T02:18:54;16.65;;;7.97;;
18544;SDS011;9402;51.460;7.276;2023-04-15T02:20:57;26.40;;;9.18;;
18544;SDS011;9402;51.460;7.276;2023-04-15T02:22:59;18.40;;;7.78;;
18544;SDS011;9402;51.460;7.276;2023-04-15T02:25:02;27.60;;;19.52;;
18544;SDS011;9402;51.460;7.276;2023-04-15T02:27:05;19.17;;;8.85;;
18544;SDS011;9402;51.460;7.276;2023-04-15T02:29:07;23.92;;;10.60;;
18544;SDS011;9402;51.460;7.276;2023-04-15T02:31:11;22.88;;;10.32;;
18544;SDS011;9402;51.460;7.276;2023-04-15T02:33:13;28.55;;;11.25;;
18544;SDS011;9402;51.460;7.276;2023-04-15T02:35:15;23.88;;;11.82;;
18544;SDS011;9402;51.460;7.276;2023-04-15T02:37:18;22.05;;;11.95;;
18544;SDS011;9402;51.460;7.276;2023-04-15T02:39:21;23.67;;;12.07;;
18544;SDS011;9402;51.460;7.276;2023-04-15T02:41:23;21.48;;;10.02;;
18544;SDS011;9402;51.460;7.276;2023-04-15T02:43:27;19.25;;;9.10;;
18544;SDS011;9402;51.460;7.276;2023-04-15T02:45:29;20.38;;;8.60;;
18544;SDS011;9402;51.460;7.276;2023-04-15T02:47:33;20.08;;;8.63;;
18544;SDS011;9402;51.460;7.276;2023-04-15T02:49:36;20.73;;;10.07;;
18544;SDS011;9402;51.460;7.276;2023-04-15T02:51:39;20.50;;;10.60;;
18544;SDS011;9402;51.460;7.276;2023-04-15T02:53:41;17.92;;;9.63;;
18544;SDS011;9402;51.460;7.276;2023-04-15T02:55:44;22.13;;;11.45;;
18544;SDS011;9402;51.460;7.276;2023-04-15T02:57:46;22.52;;;11.60;;
18544;SDS011;9402;51.460;7.276;2023-04-15T02:59:48;20.05;;;9.98;;
18544;SDS011;9402;51.460;7.276;2023-04-15T03:01:51;26.08;;;10.60;;
18544;SDS011;9402;51.460;7.276;2023-04-15T03:03:55;20.15;;;9.15;;
18544;SDS011;9402;51.460;7.276;2023-04-15T03:05:58;21.40;;;10.93;;
18544;SDS011;9402;51.460;7.276;2023-04-15T03:08:00;20.63;;;10.80;;
18544;SDS011;9402;51.460;7.276;2023-04-15T03:10:02;24.65;;;9.45;;
18544;SDS011;9402;51.460;7.276;2023-04-15T03:12:05;26.73;;;11.15;;
18544;SDS011;9402;51.460;7.276;2023-04-15T03:14:07;20.42;;;10.52;;
18544;SDS011;9402;51.460;7.276;2023-04-15T03:16:10;19.73;;;9.77;;
18544;SDS011;9402;51.460;7.276;2023-04-15T03:18:12;29.75;;;11.35;;
18544;SDS011;9402;51.460;7.276;2023-04-15T03:20:16;23.15;;;10.85;;
18544;SDS011;9402;51.460;7.276;2023-04-15T03:22:19;18.27;;;10.57;;
18544;SDS011;9402;51.460;7.276;2023-04-15T03:24:21;20.23;;;9.10;;
18544;SDS011;9402;51.460;7.276;2023-04-15T03:26:25;18.88;;;10.00;;
18544;SDS011;9402;51.460;7.276;2023-04-15T03:28:28;30.90;;;11.57;;
18544;SDS011;9402;51.460;7.276;2023-04-15T03:30:31;19.23;;;10.50;;
18544;SDS011;9402;51.460;7.276;2023-04-15T03:32:33;20.30;;;10.55;;
18544;SDS011;9402;51.460;7.276;2023-04-15T03:34:36;22.40;;;11.88;;
18544;SDS011;9402;51.460;7.276;2023-04-15T03:36:39;19.40;;;12.10;;
18544;SDS011;9402;51.460;7.276;2023-04-15T03:38:42;26.50;;;12.40;;
18544;SDS011;9402;51.460;7.276;2023-04-15T03:40:45;30.40;;;14.75;;
18544;SDS011;9402;51.460;7.276;2023-04-15T03:42:48;26.98;;;14.70;;
18544;SDS011;9402;51.460;7.276;2023-04-15T03:44:50;27.55;;;14.77;;
18544;SDS011;9402;51.460;7.276;2023-04-15T03:46:53;25.15;;;14.10;;
18544;SDS011;9402;51.460;7.276;2023-04-15T03:48:55;31.83;;;17.67;;
18544;SDS011;9402;51.460;7.276;2023-04-15T03:50:57;26.48;;;15.40;;
18544;SDS011;9402;51.460;7.276;2023-04-15T03:53:01;27.95;;;14.98;;
18544;SDS011;9402;51.460;7.276;2023-04-15T03:55:03;31.52;;;16.17;;
18544;SDS011;9402;51.460;7.276;2023-04-15T03:57:07;34.72;;;17.20;;
18544;SDS011;9402;51.460;7.276;2023-04-15T03:59:10;31.88;;;17.45;;
18544;SDS011;9402;51.460;7.276;2023-04-15T04:01:12;28.10;;;15.52;;
18544;SDS011;9402;51.460;7.276;2023-04-15T04:03:15;29.25;;;16.30;;
18544;SDS011;9402;51.460;7.276;2023-04-15T04:05:18;29.05;;;16.98;;
18544;SDS011;9402;51.460;7.276;2023-04-15T04:07:22;27.30;;;14.60;;
18544;SDS011;9402;51.460;7.276;2023-04-15T04:09:25;28.98;;;15.25;;
18544;SDS011;9402;51.460;7.276;2023-04-15T04:11:28;28.92;;;15.50;;
18544;SDS011;9402;51.460;7.276;2023-04-15T04:13:30;26.15;;;15.93;;
18544;SDS011;9402;51.460;7.276;2023-04-15T04:15:33;27.75;;;15.68;;
18544;SDS011;9402;51.460;7.276;2023-04-15T04:17:35;31.40;;;15.98;;
18544;SDS011;9402;51.460;7.276;2023-04-15T04:19:37;29.90;;;16.08;;
18544;SDS011;9402;51.460;7.276;2023-04-15T04:21:40;29.27;;;17.15;;
18544;SDS011;9402;51.460;7.276;2023-04-15T04:23:42;32.45;;;16.20;;
18544;SDS011;9402;51.460;7.276;2023-04-15T04:25:46;31.55;;;15.98;;
18544;SDS011;9402;51.460;7.276;2023-04-15T04:27:48;29.13;;;16.90;;
18544;SDS011;9402;51.460;7.276;2023-04-15T04:29:50;31.02;;;18.05;;
18544;SDS011;9402;51.460;7.276;2023-04-15T04:31:53;39.40;;;16.77;;
18544;SDS011;9402;51.460;7.276;2023-04-15T04:33:55;33.95;;;19.38;;
18544;SDS011;9402;51.460;7.276;2023-04-15T04:35:57;34.38;;;17.30;;
18544;SDS011;9402;51.460;7.276;2023-04-15T04:38:00;33.42;;;16.63;;
18544;SDS011;9402;51.460;7.276;2023-04-15T04:40:03;30.80;;;17.30;;
18544;SDS011;9402;51.460;7.276;2023-04-15T04:42:08;30.67;;;17.85;;
18544;SDS011;9402;51.460;7.276;2023-04-15T04:44:10;27.55;;;15.32;;
18544;SDS011;9402;51.460;7.276;2023-04-15T04:46:13;23.52;;;13.20;;
18544;SDS011;9402;51.460;7.276;2023-04-15T04:48:15;24.48;;;13.15;;
18544;SDS011;9402;51.460;7.276;2023-04-15T04:50:17;22.92;;;12.75;;
18544;SDS011;9402;51.460;7.276;2023-04-15T04:52:20;21.48;;;12.50;;
18544;SDS011;9402;51.460;7.276;2023-04-15T04:54:22;27.38;;;14.40;;
18544;SDS011;9402;51.460;7.276;2023-04-15T04:56:25;30.45;;;13.60;;
18544;SDS011;9402;51.460;7.276;2023-04-15T04:58:28;22.40;;;12.93;;
18544;SDS011;9402;51.460;7.276;2023-04-15T05:00:31;22.85;;;12.18;;
18544;SDS011;9402;51.460;7.276;2023-04-15T05:02:33;20.90;;;11.95;;
18544;SDS011;9402;51.460;7.276;2023-04-15T05:04:36;27.05;;;15.20;;
18544;SDS011;9402;51.460;7.276;2023-04-15T05:06:38;23.20;;;13.65;;
18544;SDS011;9402;51.460;7.276;2023-04-15T05:08:40;29.63;;;15.07;;
18544;SDS011;9402;51.460;7.276;2023-04-15T05:10:43;22.58;;;13.68;;
18544;SDS011;9402;51.460;7.276;2023-04-15T05:12:45;21.98;;;12.32;;
18544;SDS011;9402;51.460;7.276;2023-04-15T05:14:49;26.98;;;12.77;;
18544;SDS011;9402;51.460;7.276;2023-04-15T05:16:51;21.73;;;12.20;;
18544;SDS011;9402;51.460;7.276;2023-04-15T05:18:53;19.75;;;11.40;;
18544;SDS011;9402;51.460;7.276;2023-04-15T05:20:55;22.67;;;11.50;;
18544;SDS011;9402;51.460;7.276;2023-04-15T05:22:58;19.15;;;11.13;;
18544;SDS011;9402;51.460;7.276;2023-04-15T05:25:00;23.08;;;12.23;;
18544;SDS011;9402;51.460;7.276;2023-04-15T05:27:03;28.27;;;16.65;;
18544;SDS011;9402;51.460;7.276;2023-04-15T05:29:05;23.63;;;13.25;;
18544;SDS011;9402;51.460;7.276;2023-04-15T05:31:09;20.85;;;12.95;;
18544;SDS011;9402;51.460;7.276;2023-04-15T05:33:11;25.27;;;12.75;;
18544;SDS011;9402;51.460;7.276;2023-04-15T05:35:13;20.90;;;11.13;;
18544;SDS011;9402;51.460;7.276;2023-04-15T05:37:16;25.98;;;12.02;;
18544;SDS011;9402;51.460;7.276;2023-04-15T05:39:19;24.38;;;14.40;;
18544;SDS011;9402;51.460;7.276;2023-04-15T05:41:22;21.92;;;12.75;;
18544;SDS011;9402;51.460;7.276;2023-04-15T05:43:24;29.48;;;20.08;;
18544;SDS011;9402;51.460;7.276;2023-04-15T05:45:26;20.40;;;12.27;;
18544;SDS011;9402;51.460;7.276;2023-04-15T05:47:31;24.88;;;12.98;;
18544;SDS011;9402;51.460;7.276;2023-04-15T05:49:34;22.08;;;13.52;;
18544;SDS011;9402;51.460;7.276;2023-04-15T05:51:36;22.42;;;13.27;;
18544;SDS011;9402;51.460;7.276;2023-04-15T05:53:38;25.42;;;17.40;;
18544;SDS011;9402;51.460;7.276;2023-04-15T05:55:41;26.10;;;14.80;;
18544;SDS011;9402;51.460;7.276;2023-04-15T05:57:43;25.65;;;15.32;;
18544;SDS011;9402;51.460;7.276;2023-04-15T05:59:45;45.17;;;39.15;;
18544;SDS011;9402;51.460;7.276;2023-04-15T06:01:48;37.03;;;29.05;;
18544;SDS011;9402;51.460;7.276;2023-04-15T06:03:52;31.33;;;22.88;;
18544;SDS011;9402;51.460;7.276;2023-04-15T06:05:55;32.83;;;26.13;;
18544;SDS011;9402;51.460;7.276;2023-04-15T06:07:57;27.35;;;14.48;;
18544;SDS011;9402;51.460;7.276;2023-04-15T06:09:59;54.83;;;42.60;;
18544;SDS011;9402;51.460;7.276;2023-04-15T06:12:02;32.72;;;21.92;;
18544;SDS011;9402;51.460;7.276;2023-04-15T06:14:05;24.73;;;14.48;;
18544;SDS011;9402;51.460;7.276;2023-04-15T06:16:08;22.05;;;12.23;;
18544;SDS011;9402;51.460;7.276;2023-04-15T06:18:10;22.05;;;10.98;;
18544;SDS011;9402;51.460;7.276;2023-04-15T06:20:14;23.20;;;14.65;;
18544;SDS011;9402;51.460;7.276;2023-04-15T06:22:16;21.42;;;11.60;;
18544;SDS011;9402;51.460;7.276;2023-04-15T06:24:19;19.67;;;11.30;;
18544;SDS011;9402;51.460;7.276;2023-04-15T06:26:21;24.52;;;13.40;;
18544;SDS011;9402;51.460;7.276;2023-04-15T06:28:24;24.42;;;13.25;;
18544;SDS011;9402;51.460;7.276;2023-04-15T06:30:26;21.42;;;12.68;;
18544;SDS011;9402;51.460;7.276;2023-04-15T06:32:28;25.00;;;14.13;;
18544;SDS011;9402;51.460;7.276;2023-04-15T06:34:31;29.95;;;14.48;;
18544;SDS011;9402;51.460;7.276;2023-04-15T06:36:34;24.52;;;13.30;;
18544;SDS011;9402;51.460;7.276;2023-04-15T06:38:37;23.92;;;14.32;;
18544;SDS011;9402;51.460;7.276;2023-04-15T06:40:39;24.25;;;14.43;;
18544;SDS011;9402;51.460;7.276;2023-04-15T06:42:41;23.73;;;13.98;;
18544;SDS011;9402;51.460;7.276;2023-04-15T06:44:44;23.35;;;14.00;;
18544;SDS011;9402;51.460;7.276;2023-04-15T06:46:47;27.20;;;15.25;;
18544;SDS011;9402;51.460;7.276;2023-04-15T06:48:49;24.30;;;14.60;;
18544;SDS011;9402;51.460;7.276;2023-04-15T06:50:51;22.35;;;14.05;;
18544;SDS011;9402;51.460;7.276;2023-04-15T06:52:55;22.55;;;13.68;;
18544;SDS011;9402;51.460;7.276;2023-04-15T06:54:57;29.40;;;15.73;;
18544;SDS011;9402;51.460;7.276;2023-04-15T06:57:00;26.75;;;14.75;;
18544;SDS011;9402;51.460;7.276;2023-04-15T06:59:02;27.43;;;15.60;;
18544;SDS011;9402;51.460;7.276;2023-04-15T07:01:05;23.67;;;14.67;;
18544;SDS011;9402;51.460;7.276;2023-04-15T07:03:07;24.10;;;14.17;;
18544;SDS011;9402;51.460;7.276;2023-04-15T07:05:11;27.63;;;16.77;;
18544;SDS011;9402;51.460;7.276;2023-04-15T07:07:14;28.60;;;15.90;;
18544;SDS011;9402;51.460;7.276;2023-04-15T07:09:17;26.87;;;16.23;;
18544;SDS011;9402;51.460;7.276;2023-04-15T07:11:20;24.23;;;14.20;;
18544;SDS011;9402;51.460;7.276;2023-04-15T07:13:22;29.57;;;16.50;;
18544;SDS011;9402;51.460;7.276;2023-04-15T07:15:24;28.90;;;16.80;;
18544;SDS011;9402;51.460;7.276;2023-04-15T07:17:27;25.80;;;16.80;;
18544;SDS011;9402;51.460;7.276;2023-04-15T07:19:29;28.20;;;16.40;;
18544;SDS011;9402;51.460;7.276;2023-04-15T07:21:32;24.90;;;15.50;;
18544;SDS011;9402;51.460;7.276;2023-04-15T07:23:34;28.37;;;16.07;;
18544;SDS011;9402;51.460;7.276;2023-04-15T07:25:38;32.93;;;16.13;;
18544;SDS011;9402;51.460;7.276;2023-04-15T07:27:40;29.37;;;18.07;;
18544;SDS011;9402;51.460;7.276;2023-04-15T07:29:43;28.10;;;16.73;;
18544;SDS011;9402;51.460;7.276;2023-04-15T07:31:45;24.57;;;16.00;;
18544;SDS011;9402;51.460;7.276;2023-04-15T07:33:47;27.43;;;15.73;;
18544;SDS011;9402;51.460;7.276;2023-04-15T07:35:50;29.83;;;16.87;;
18544;SDS011;9402;51.460;7.276;2023-04-15T07:37:52;24.93;;;15.87;;
18544;SDS011;9402;51.460;7.276;2023-04-15T07:39:55;25.47;;;15.50;;
18544;SDS011;9402;51.460;7.276;2023-04-15T07:41:58;29.37;;;16.20;;
18544;SDS011;9402;51.460;7.276;2023-04-15T07:44:01;24.10;;;15.57;;
18544;SDS011;9402;51.460;7.276;2023-04-15T07:46:04;26.07;;;16.50;;
18544;SDS011;9402;51.460;7.276;2023-04-15T07:48:06;28.60;;;16.90;;
18544;SDS011;9402;51.460;7.276;2023-04-15T07:50:09;25.50;;;16.43;;
18544;SDS011;9402;51.460;7.276;2023-04-15T07:52:11;26.00;;;15.70;;
18544;SDS011;9402;51.460;7.276;2023-04-15T07:54:14;29.50;;;16.50;;
18544;SDS011;9402;51.460;7.276;2023-04-15T07:56:16;27.50;;;16.10;;
18544;SDS011;9402;51.460;7.276;2023-04-15T07:58:20;26.30;;;14.60;;
18544;SDS011;9402;51.460;7.276;2023-04-15T08:00:22;28.33;;;16.47;;
18544;SDS011;9402;51.460;7.276;2023-04-15T08:02:25;24.87;;;14.57;;
18544;SDS011;9402;51.460;7.276;2023-04-15T08:04:28;23.70;;;14.47;;
18544;SDS011;9402;51.460;7.276;2023-04-15T08:06:30;22.80;;;14.20;;
18544;SDS011;9402;51.460;7.276;2023-04-15T08:08:33;22.93;;;14.50;;
18544;SDS011;9402;51.460;7.276;2023-04-15T08:10:36;23.83;;;13.77;;
18544;SDS011;9402;51.460;7.276;2023-04-15T08:12:38;22.90;;;13.73;;
18544;SDS011;9402;51.460;7.276;2023-04-15T08:14:42;22.80;;;13.50;;
18544;SDS011;9402;51.460;7.276;2023-04-15T08:16:44;24.87;;;14.10;;
18544;SDS011;9402;51.460;7.276;2023-04-15T08:18:47;21.93;;;12.90;;
18544;SDS011;9402;51.460;7.276;2023-04-15T08:20:50;20.40;;;11.67;;
18544;SDS011;9402;51.460;7.276;2023-04-15T08:22:53;19.70;;;11.33;;
18544;SDS011;9402;51.460;7.276;2023-04-15T08:24:56;21.70;;;11.87;;
18544;SDS011;9402;51.460;7.276;2023-04-15T08:26:58;23.23;;;12.50;;
18544;SDS011;9402;51.460;7.276;2023-04-15T08:29:03;21.10;;;11.63;;
18544;SDS011;9402;51.460;7.276;2023-04-15T08:31:07;19.73;;;11.03;;
18544;SDS011;9402;51.460;7.276;2023-04-15T08:33:09;19.47;;;10.90;;
18544;SDS011;9402;51.460;7.276;2023-04-15T08:35:12;29.27;;;10.20;;
18544;SDS011;9402;51.460;7.276;2023-04-15T08:37:14;18.97;;;9.70;;
18544;SDS011;9402;51.460;7.276;2023-04-15T08:39:16;18.17;;;9.40;;
18544;SDS011;9402;51.460;7.276;2023-04-15T08:41:20;16.73;;;8.80;;
18544;SDS011;9402;51.460;7.276;2023-04-15T08:43:23;17.07;;;8.90;;
18544;SDS011;9402;51.460;7.276;2023-04-15T08:45:29;17.20;;;9.50;;
18544;SDS011;9402;51.460;7.276;2023-04-15T08:47:33;16.87;;;9.93;;
18544;SDS011;9402;51.460;7.276;2023-04-15T08:49:38;18.13;;;9.70;;
18544;SDS011;9402;51.460;7.276;2023-04-15T08:51:41;17.10;;;10.07;;
18544;SDS011;9402;51.460;7.276;2023-04-15T08:53:44;16.90;;;9.33;;
18544;SDS011;9402;51.460;7.276;2023-04-15T08:55:49;14.93;;;8.00;;
18544;SDS011;9402;51.460;7.276;2023-04-15T08:57:52;16.13;;;8.07;;
18544;SDS011;9402;51.460;7.276;2023-04-15T08:59:55;16.20;;;8.50;;
18544;SDS011;9402;51.460;7.276;2023-04-15T09:01:57;19.33;;;8.57;;
18544;SDS011;9402;51.460;7.276;2023-04-15T09:04:01;16.60;;;8.40;;
18544;SDS011;9402;51.460;7.276;2023-04-15T09:06:05;25.87;;;8.60;;
18544;SDS011;9402;51.460;7.276;2023-04-15T09:08:08;15.30;;;7.20;;
18544;SDS011;9402;51.460;7.276;2023-04-15T09:10:10;18.33;;;9.03;;
18544;SDS011;9402;51.460;7.276;2023-04-15T09:12:12;20.40;;;8.50;;
18544;SDS011;9402;51.460;7.276;2023-04-15T09:14:15;17.03;;;9.20;;
18544;SDS011;9402;51.460;7.276;2023-04-15T09:16:18;16.83;;;9.40;;
18544;SDS011;9402;51.460;7.276;2023-04-15T09:18:27;14.10;;;7.70;;
18544;SDS011;9402;51.460;7.276;2023-04-15T09:20:32;16.57;;;7.20;;
18544;SDS011;9402;51.460;7.276;2023-04-15T09:22:40;16.43;;;6.83;;
18544;SDS011;9402;51.460;7.276;2023-04-15T09:24:43;13.73;;;7.17;;
18544;SDS011;9402;51.460;7.276;2023-04-15T09:26:46;15.33;;;7.10;;
18544;SDS011;9402;51.460;7.276;2023-04-15T09:28:49;12.77;;;7.03;;
18544;SDS011;9402;51.460;7.276;2023-04-15T09:30:54;13.37;;;7.30;;
18544;SDS011;9402;51.460;7.276;2023-04-15T09:32:57;14.07;;;8.03;;
18544;SDS011;9402;51.460;7.276;2023-04-15T09:35:09;15.37;;;7.70;;
18544;SDS011;9402;51.460;7.276;2023-04-15T09:37:14;16.27;;;8.10;;
18544;SDS011;9402;51.460;7.276;2023-04-15T09:39:19;16.30;;;7.80;;
18544;SDS011;9402;51.460;7.276;2023-04-15T09:41:22;12.87;;;7.50;;
18544;SDS011;9402;51.460;7.276;2023-04-15T09:43:36;14.67;;;8.13;;
18544;SDS011;9402;51.460;7.276;2023-04-15T09:45:40;17.43;;;8.93;;
18544;SDS011;9402;51.460;7.276;2023-04-15T09:47:48;17.43;;;9.53;;
18544;SDS011;9402;51.460;7.276;2023-04-15T09:49:54;21.10;;;9.53;;
18544;SDS011;9402;51.460;7.276;2023-04-15T09:51:57;15.20;;;8.87;;
18544;SDS011;9402;51.460;7.276;2023-04-15T09:54:02;21.73;;;9.90;;
18544;SDS011;9402;51.460;7.276;2023-04-15T09:56:04;19.50;;;12.13;;
18544;SDS011;9402;51.460;7.276;2023-04-15T09:58:08;23.80;;;11.97;;
18544;SDS011;9402;51.460;7.276;2023-04-15T10:00:11;23.90;;;12.73;;
18544;SDS011;9402;51.460;7.276;2023-04-15T10:02:15;21.13;;;12.27;;
18544;SDS011;9402;51.460;7.276;2023-04-15T10:04:19;21.10;;;12.53;;
18544;SDS011;9402;51.460;7.276;2023-04-15T10:06:22;21.20;;;11.63;;
18544;SDS011;9402;51.460;7.276;2023-04-15T10:08:26;21.00;;;13.10;;
18544;SDS011;9402;51.460;7.276;2023-04-15T10:10:30;20.53;;;13.33;;
18544;SDS011;9402;51.460;7.276;2023-04-15T10:12:33;22.70;;;13.60;;
18544;SDS011;9402;51.460;7.276;2023-04-15T10:14:37;21.67;;;12.83;;
18544;SDS011;9402;51.460;7.276;2023-04-15T10:16:42;21.50;;;14.20;;
18544;SDS011;9402;51.460;7.276;2023-04-15T10:18:50;19.57;;;12.80;;
18544;SDS011;9402;51.460;7.276;2023-04-15T10:20:55;21.47;;;13.13;;
18544;SDS011;9402;51.460;7.276;2023-04-15T10:22:58;18.60;;;11.50;;
18544;SDS011;9402;51.460;7.276;2023-04-15T10:25:01;22.27;;;12.50;;
18544;SDS011;9402;51.460;7.276;2023-04-15T10:27:05;18.30;;;11.10;;
18544;SDS011;9402;51.460;7.276;2023-04-15T10:29:08;19.10;;;10.33;;
18544;SDS011;9402;51.460;7.276;2023-04-15T10:31:11;16.47;;;9.13;;
18544;SDS011;9402;51.460;7.276;2023-04-15T10:33:14;16.20;;;9.53;;
18544;SDS011;9402;51.460;7.276;2023-04-15T10:35:17;17.20;;;9.70;;
18544;SDS011;9402;51.460;7.276;2023-04-15T10:37:22;14.60;;;8.00;;
18544;SDS011;9402;51.460;7.276;2023-04-15T10:39:38;16.03;;;9.17;;
18544;SDS011;9402;51.460;7.276;2023-04-15T10:41:44;15.17;;;8.73;;
18544;SDS011;9402;51.460;7.276;2023-04-15T10:43:49;15.43;;;8.57;;
18544;SDS011;9402;51.460;7.276;2023-04-15T10:45:52;16.40;;;8.30;;
18544;SDS011;9402;51.460;7.276;2023-04-15T10:47:55;14.27;;;7.23;;
18544;SDS011;9402;51.460;7.276;2023-04-15T10:49:58;14.63;;;7.70;;
18544;SDS011;9402;51.460;7.276;2023-04-15T10:52:01;17.13;;;7.70;;
18544;SDS011;9402;51.460;7.276;2023-04-15T10:54:04;13.33;;;6.87;;
18544;SDS011;9402;51.460;7.276;2023-04-15T10:56:10;18.20;;;7.43;;
18544;SDS011;9402;51.460;7.276;2023-04-15T10:58:12;15.73;;;8.27;;
18544;SDS011;9402;51.460;7.276;2023-04-15T11:00:17;13.43;;;7.47;;
18544;SDS011;9402;51.460;7.276;2023-04-15T11:02:20;14.47;;;7.77;;
18544;SDS011;9402;51.460;7.276;2023-04-15T11:07:01;15.50;;;6.90;;
18544;SDS011;9402;51.460;7.276;2023-04-15T11:09:06;13.60;;;6.77;;
18544;SDS011;9402;51.460;7.276;2023-04-15T11:11:08;14.90;;;6.87;;
18544;SDS011;9402;51.460;7.276;2023-04-15T11:13:14;15.10;;;8.27;;
18544;SDS011;9402;51.460;7.276;2023-04-15T11:15:29;14.37;;;7.33;;
18544;SDS011;9402;51.460;7.276;2023-04-15T11:17:32;14.90;;;7.50;;
18544;SDS011;9402;51.460;7.276;2023-04-15T11:19:35;13.93;;;7.30;;
18544;SDS011;9402;51.460;7.276;2023-04-15T11:21:38;17.33;;;7.73;;
18544;SDS011;9402;51.460;7.276;2023-04-15T11:23:41;13.87;;;6.73;;
18544;SDS011;9402;51.460;7.276;2023-04-15T11:25:45;14.23;;;7.33;;
18544;SDS011;9402;51.460;7.276;2023-04-15T11:27:48;18.70;;;10.33;;
18544;SDS011;9402;51.460;7.276;2023-04-15T11:29:50;14.17;;;7.23;;
18544;SDS011;9402;51.460;7.276;2023-04-15T11:31:54;13.80;;;7.20;;
18544;SDS011;9402;51.460;7.276;2023-04-15T11:34:05;15.03;;;8.13;;
18544;SDS011;9402;51.460;7.276;2023-04-15T11:36:07;16.57;;;7.50;;
18544;SDS011;9402;51.460;7.276;2023-04-15T11:38:12;13.90;;;7.40;;
18544;SDS011;9402;51.460;7.276;2023-04-15T11:40:15;14.00;;;7.90;;
18544;SDS011;9402;51.460;7.276;2023-04-15T11:42:22;15.83;;;8.60;;
18544;SDS011;9402;51.460;7.276;2023-04-15T11:44:24;14.17;;;8.10;;
18544;SDS011;9402;51.460;7.276;2023-04-15T11:46:29;14.80;;;7.40;;
18544;SDS011;9402;51.460;7.276;2023-04-15T11:48:34;13.57;;;7.57;;
18544;SDS011;9402;51.460;7.276;2023-04-15T11:50:37;15.33;;;7.80;;
18544;SDS011;9402;51.460;7.276;2023-04-15T11:52:40;14.80;;;8.00;;
18544;SDS011;9402;51.460;7.276;2023-04-15T11:54:55;14.93;;;7.57;;
18544;SDS011;9402;51.460;7.276;2023-04-15T11:57:03;15.83;;;8.20;;
18544;SDS011;9402;51.460;7.276;2023-04-15T11:59:06;15.97;;;7.93;;
18544;SDS011;9402;51.460;7.276;2023-04-15T12:01:08;16.10;;;8.30;;
18544;SDS011;9402;51.460;7.276;2023-04-15T12:03:11;13.70;;;7.73;;
18544;SDS011;9402;51.460;7.276;2023-04-15T12:05:15;15.63;;;7.87;;
18544;SDS011;9402;51.460;7.276;2023-04-15T12:07:17;18.43;;;8.17;;
18544;SDS011;9402;51.460;7.276;2023-04-15T12:09:20;15.50;;;8.70;;
18544;SDS011;9402;51.460;7.276;2023-04-15T12:11:27;14.10;;;6.87;;
18544;SDS011;9402;51.460;7.276;2023-04-15T12:13:33;14.23;;;6.90;;
18544;SDS011;9402;51.460;7.276;2023-04-15T12:15:36;14.07;;;7.10;;
18544;SDS011;9402;51.460;7.276;2023-04-15T12:17:39;12.80;;;6.90;;